createdAt,value
2016-11-23T00:00:57.787Z,10.92
2016-11-23T00:01:58.423Z,11.05
2016-11-23T00:02:59.045Z,10.97
2016-11-23T00:03:59.662Z,10.96
2016-11-23T00:05:00.280Z,11.02
2016-11-23T00:06:00.906Z,11.05
2016-11-23T00:07:01.540Z,10.94
2016-11-23T00:08:02.149Z,10.96
2016-11-23T00:09:02.768Z,10.94
2016-11-23T00:10:03.387Z,11.04
2016-11-23T00:11:04.011Z,10.97
2016-11-23T00:12:04.682Z,10.99
2016-11-23T00:13:05.305Z,11
2016-11-23T00:14:05.927Z,11
2016-11-23T00:15:06.548Z,10.97
2016-11-23T00:16:07.180Z,10.97
2016-11-23T00:17:07.802Z,11.02
2016-11-23T00:18:08.425Z,10.96
2016-11-23T00:19:09.045Z,10.93
2016-11-23T00:20:09.655Z,10.86
2016-11-23T00:21:10.291Z,10.9
2016-11-23T00:22:10.908Z,10.92
2016-11-23T00:23:11.531Z,10.89
2016-11-23T00:24:12.152Z,10.9
2016-11-23T00:25:12.773Z,10.86
2016-11-23T00:26:13.391Z,10.87
2016-11-23T00:27:14.011Z,10.89
2016-11-23T00:28:14.633Z,10.94
2016-11-23T00:29:15.261Z,10.96
2016-11-23T00:30:15.879Z,10.93
2016-11-23T00:31:16.503Z,10.93
2016-11-23T00:32:17.118Z,10.9
2016-11-23T00:33:17.779Z,10.92
2016-11-23T00:34:18.408Z,10.87
2016-11-23T00:35:19.030Z,10.87
2016-11-23T00:36:19.660Z,10.9
2016-11-23T00:37:20.275Z,10.92
2016-11-23T00:38:20.889Z,10.86
2016-11-23T00:39:21.537Z,10.89
2016-11-23T00:40:22.157Z,10.9
2016-11-23T00:41:22.827Z,10.97
2016-11-23T00:42:23.473Z,10.99
2016-11-23T00:43:24.100Z,10.92
2016-11-23T00:44:24.734Z,10.99
2016-11-23T00:45:25.454Z,11.02
2016-11-23T00:46:26.069Z,10.96
2016-11-23T00:47:26.694Z,10.94
2016-11-23T00:48:27.313Z,10.93
2016-11-23T00:49:27.929Z,10.93
2016-11-23T00:50:28.558Z,10.89
2016-11-23T00:51:29.178Z,10.89
2016-11-23T00:52:29.800Z,10.96
2016-11-23T00:53:30.419Z,10.82
2016-11-23T00:54:31.044Z,10.89
2016-11-23T00:55:31.661Z,10.87
2016-11-23T00:56:32.281Z,10.9
2016-11-23T00:57:32.901Z,10.92
2016-11-23T00:58:33.527Z,10.84
2016-11-23T00:59:34.152Z,10.92
2016-11-23T01:00:34.764Z,10.9
2016-11-23T01:01:35.387Z,10.81
2016-11-23T01:02:36.024Z,10.94
2016-11-23T01:03:36.675Z,11.04
2016-11-23T01:04:37.305Z,11.05
2016-11-23T01:05:37.923Z,11.07
2016-11-23T01:06:38.566Z,11.04
2016-11-23T01:07:39.203Z,11.08
2016-11-23T01:08:39.839Z,11.1
2016-11-23T01:09:40.457Z,11.07
2016-11-23T01:10:41.077Z,11.04
2016-11-23T01:11:41.701Z,11.08
2016-11-23T01:12:42.329Z,11.05
2016-11-23T01:13:42.941Z,11.04
2016-11-23T01:14:43.573Z,11.1
2016-11-23T01:15:44.210Z,11.02
2016-11-23T01:16:44.825Z,11.07
2016-11-23T01:17:45.437Z,11
2016-11-23T01:18:46.061Z,11.11
2016-11-23T01:19:46.675Z,11.07
2016-11-23T01:20:47.296Z,11.07
2016-11-23T01:21:47.911Z,11.04
2016-11-23T01:22:48.539Z,11
2016-11-23T01:23:49.159Z,11.04
2016-11-23T01:24:49.781Z,11
2016-11-23T01:25:50.409Z,10.92
2016-11-23T01:26:51.030Z,11.05
2016-11-23T01:27:51.656Z,11.02
2016-11-23T01:28:52.283Z,11
2016-11-23T01:29:52.890Z,10.92
2016-11-23T01:30:53.514Z,11
2016-11-23T01:31:54.128Z,10.96
2016-11-23T01:32:54.749Z,11.05
2016-11-23T01:33:55.364Z,11.1
2016-11-23T01:34:55.989Z,10.93
2016-11-23T01:35:56.612Z,11
2016-11-23T01:36:57.229Z,10.96
2016-11-23T01:37:57.848Z,10.93
2016-11-23T01:38:58.536Z,10.97
2016-11-23T01:39:59.148Z,11.04
2016-11-23T01:40:59.765Z,11.04
2016-11-23T01:42:00.389Z,10.92
2016-11-23T01:43:01.019Z,11.04
2016-11-23T01:44:01.658Z,11
2016-11-23T01:45:02.301Z,11.05
2016-11-23T01:46:02.919Z,11.07
2016-11-23T01:47:03.539Z,11.05
2016-11-23T01:48:04.163Z,10.99
2016-11-23T01:49:04.784Z,11.07
2016-11-23T01:50:05.401Z,10.99
2016-11-23T01:51:06.028Z,10.97
2016-11-23T01:52:06.644Z,10.97
2016-11-23T01:53:07.267Z,10.94
2016-11-23T01:54:07.895Z,10.87
2016-11-23T01:55:08.515Z,10.94
2016-11-23T01:56:09.136Z,10.96
2016-11-23T01:57:09.797Z,10.89
2016-11-23T01:58:10.459Z,10.99
2016-11-23T01:59:11.141Z,10.86
2016-11-23T02:00:11.759Z,10.92
2016-11-23T02:01:12.379Z,10.89
2016-11-23T02:02:13.000Z,10.9
2016-11-23T02:03:13.607Z,10.87
2016-11-23T02:04:14.235Z,10.92
2016-11-23T02:05:14.917Z,10.92
2016-11-23T02:06:15.544Z,10.87
2016-11-23T02:07:16.154Z,10.75
2016-11-23T02:08:16.797Z,10.81
2016-11-23T02:09:17.424Z,10.76
2016-11-23T02:10:18.043Z,10.82
2016-11-23T02:11:18.654Z,10.84
2016-11-23T02:12:19.275Z,10.81
2016-11-23T02:13:19.897Z,10.78
2016-11-23T02:14:20.530Z,10.82
2016-11-23T02:15:21.161Z,10.84
2016-11-23T02:16:21.768Z,10.82
2016-11-23T02:17:22.400Z,10.82
2016-11-23T02:18:23.010Z,10.84
2016-11-23T02:19:23.664Z,10.9
2016-11-23T02:20:24.285Z,10.86
2016-11-23T02:21:24.904Z,10.89
2016-11-23T02:22:25.526Z,10.79
2016-11-23T02:23:26.146Z,10.82
2016-11-23T02:24:26.770Z,10.79
2016-11-23T02:25:27.390Z,10.81
2016-11-23T02:26:28.042Z,10.87
2016-11-23T02:27:28.663Z,10.78
2016-11-23T02:28:29.270Z,10.82
2016-11-23T02:29:29.912Z,10.64
2016-11-23T02:30:30.532Z,10.72
2016-11-23T02:31:31.164Z,10.72
2016-11-23T02:32:31.885Z,10.63
2016-11-23T02:33:32.598Z,10.68
2016-11-23T02:34:33.210Z,10.67
2016-11-23T02:35:33.836Z,10.69
2016-11-23T02:36:34.468Z,10.67
2016-11-23T02:37:35.093Z,10.72
2016-11-23T02:38:35.718Z,10.68
2016-11-23T02:39:36.362Z,10.69
2016-11-23T02:40:36.986Z,10.63
2016-11-23T02:41:37.598Z,10.67
2016-11-23T02:42:38.228Z,10.67
2016-11-23T02:43:39.006Z,10.67
2016-11-23T02:44:39.577Z,10.71
2016-11-23T02:45:40.194Z,10.63
2016-11-23T02:46:40.819Z,10.63
2016-11-23T02:47:41.457Z,10.64
2016-11-23T02:48:42.074Z,10.69
2016-11-23T02:49:42.696Z,10.78
2016-11-23T02:50:43.324Z,10.82
2016-11-23T02:51:43.948Z,10.79
2016-11-23T02:52:44.567Z,10.76
2016-11-23T02:53:45.183Z,10.79
2016-11-23T02:54:45.805Z,10.82
2016-11-23T02:55:46.447Z,10.81
2016-11-23T02:56:47.087Z,10.82
2016-11-23T02:57:47.743Z,10.84
2016-11-23T02:58:48.383Z,10.84
2016-11-23T02:59:49.002Z,10.89
2016-11-23T03:00:49.629Z,10.96
2016-11-23T03:01:50.245Z,10.87
2016-11-23T03:02:50.868Z,10.84
2016-11-23T03:03:51.497Z,10.9
2016-11-23T03:04:52.123Z,10.92
2016-11-23T03:05:52.738Z,10.89
2016-11-23T03:06:53.351Z,10.99
2016-11-23T03:07:53.965Z,11
2016-11-23T03:08:54.591Z,10.89
2016-11-23T03:09:55.211Z,10.89
2016-11-23T03:10:55.832Z,10.93
2016-11-23T03:11:56.454Z,10.86
2016-11-23T03:12:57.085Z,10.89
2016-11-23T03:13:57.720Z,10.89
2016-11-23T03:14:58.438Z,10.87
2016-11-23T03:15:59.052Z,10.89
2016-11-23T03:16:59.696Z,10.89
2016-11-23T03:18:00.318Z,10.97
2016-11-23T03:19:00.944Z,10.87
2016-11-23T03:20:01.564Z,10.93
2016-11-23T03:21:02.192Z,10.9
2016-11-23T03:22:02.815Z,10.89
2016-11-23T03:23:03.484Z,10.9
2016-11-23T03:24:04.110Z,10.81
2016-11-23T03:25:04.741Z,10.93
2016-11-23T03:26:05.363Z,10.92
2016-11-23T03:27:05.991Z,10.89
2016-11-23T03:28:06.619Z,10.93
2016-11-23T03:29:07.250Z,10.87
2016-11-23T03:30:07.879Z,10.86
2016-11-23T03:31:08.511Z,10.84
2016-11-23T03:32:09.146Z,10.87
2016-11-23T03:33:09.767Z,10.93
2016-11-23T03:34:10.400Z,10.93
2016-11-23T03:35:11.051Z,10.87
2016-11-23T03:36:11.679Z,10.96
2016-11-23T03:37:12.301Z,10.89
2016-11-23T03:38:12.919Z,10.89
2016-11-23T03:39:13.542Z,10.84
2016-11-23T03:40:14.185Z,10.89
2016-11-23T03:41:14.818Z,10.82
2016-11-23T03:42:15.434Z,10.87
2016-11-23T03:43:16.088Z,10.79
2016-11-23T03:44:16.701Z,10.92
2016-11-23T03:45:17.316Z,10.86
2016-11-23T03:46:17.938Z,10.87
2016-11-23T03:47:18.560Z,10.9
2016-11-23T03:48:19.180Z,10.96
2016-11-23T03:49:19.802Z,10.94
2016-11-23T03:50:20.426Z,10.97
2016-11-23T03:51:21.081Z,10.97
2016-11-23T03:52:21.701Z,11
2016-11-23T03:53:22.323Z,10.94
2016-11-23T03:54:22.957Z,10.96
2016-11-23T03:55:23.579Z,10.97
2016-11-23T03:56:24.201Z,10.93
2016-11-23T03:57:24.816Z,10.93
2016-11-23T03:58:25.432Z,10.93
2016-11-23T03:59:26.041Z,10.9
2016-11-23T04:00:26.667Z,10.93
2016-11-23T04:01:27.294Z,10.87
2016-11-23T04:02:27.910Z,10.92
2016-11-23T04:03:28.542Z,10.87
2016-11-23T04:04:29.174Z,10.89
2016-11-23T04:05:29.784Z,10.89
2016-11-23T04:06:30.419Z,10.87
2016-11-23T04:07:31.044Z,10.79
2016-11-23T04:08:31.664Z,10.82
2016-11-23T04:09:32.279Z,10.82
2016-11-23T04:10:32.900Z,10.74
2016-11-23T04:11:33.521Z,10.86
2016-11-23T04:12:34.145Z,10.75
2016-11-23T04:13:34.768Z,10.68
2016-11-23T04:14:35.387Z,10.78
2016-11-23T04:15:36.012Z,10.75
2016-11-23T04:16:36.650Z,10.69
2016-11-23T04:17:37.292Z,10.69
2016-11-23T04:18:37.915Z,10.75
2016-11-23T04:19:38.537Z,10.69
2016-11-23T04:20:39.153Z,10.71
2016-11-23T04:21:39.777Z,10.68
2016-11-23T04:22:40.475Z,10.71
2016-11-23T04:23:41.115Z,10.75
2016-11-23T04:24:41.750Z,10.76
2016-11-23T04:25:42.377Z,10.72
2016-11-23T04:26:43.046Z,10.74
2016-11-23T04:27:43.709Z,10.63
2016-11-23T04:28:44.343Z,10.63
2016-11-23T04:29:44.981Z,10.67
2016-11-23T04:30:45.631Z,10.75
2016-11-23T04:31:46.308Z,10.75
2016-11-23T04:32:46.934Z,10.64
2016-11-23T04:33:47.544Z,10.67
2016-11-23T04:34:48.176Z,10.74
2016-11-23T04:35:48.808Z,10.75
2016-11-23T04:36:49.436Z,10.69
2016-11-23T04:37:50.078Z,10.79
2016-11-23T04:38:50.744Z,10.78
2016-11-23T04:39:51.364Z,10.74
2016-11-23T04:40:51.977Z,10.72
2016-11-23T04:41:52.605Z,10.81
2016-11-23T04:42:53.235Z,10.74
2016-11-23T04:43:53.851Z,10.75
2016-11-23T04:44:54.510Z,10.64
2016-11-23T04:45:55.161Z,10.69
2016-11-23T04:46:55.798Z,10.72
2016-11-23T04:47:56.411Z,10.69
2016-11-23T04:48:57.059Z,10.6
2016-11-23T04:49:57.682Z,10.68
2016-11-23T04:50:58.300Z,10.69
2016-11-23T04:51:58.929Z,10.75
2016-11-23T04:52:59.551Z,10.61
2016-11-23T04:54:00.170Z,10.63
2016-11-23T04:55:00.786Z,10.69
2016-11-23T04:56:01.407Z,10.64
2016-11-23T04:57:02.026Z,10.63
2016-11-23T04:58:02.646Z,10.67
2016-11-23T04:59:03.271Z,10.68
2016-11-23T05:00:04.033Z,10.79
2016-11-23T05:01:04.652Z,10.67
2016-11-23T05:02:05.276Z,10.69
2016-11-23T05:03:05.887Z,10.71
2016-11-23T05:04:06.517Z,10.76
2016-11-23T05:05:07.136Z,10.71
2016-11-23T05:06:07.898Z,10.64
2016-11-23T05:07:08.530Z,10.63
2016-11-23T05:08:09.157Z,10.74
2016-11-23T05:09:09.785Z,10.67
2016-11-23T05:10:10.410Z,10.72
2016-11-23T05:11:11.026Z,10.71
2016-11-23T05:12:11.653Z,10.68
2016-11-23T05:13:12.263Z,10.61
2016-11-23T05:14:12.890Z,10.6
2016-11-23T05:15:13.518Z,10.6
2016-11-23T05:16:14.139Z,10.68
2016-11-23T05:17:14.782Z,10.68
2016-11-23T05:18:15.433Z,10.68
2016-11-23T05:19:16.063Z,10.64
2016-11-23T05:20:16.681Z,10.67
2016-11-23T05:21:17.318Z,10.59
2016-11-23T05:22:17.927Z,10.61
2016-11-23T05:23:18.548Z,10.63
2016-11-23T05:24:19.167Z,10.61
2016-11-23T05:25:19.799Z,10.71
2016-11-23T05:26:20.430Z,10.69
2016-11-23T05:27:21.047Z,10.69
2016-11-23T05:28:21.663Z,10.68
2016-11-23T05:29:22.296Z,10.69
2016-11-23T05:30:23.021Z,10.67
2016-11-23T05:31:23.640Z,10.61
2016-11-23T05:32:24.252Z,10.6
2016-11-23T05:33:24.886Z,10.6
2016-11-23T05:34:25.515Z,10.69
2016-11-23T05:35:26.136Z,10.71
2016-11-23T05:36:26.772Z,10.71
2016-11-23T05:37:27.467Z,10.69
2016-11-23T05:38:28.116Z,10.71
2016-11-23T05:39:29.901Z,10.71
2016-11-23T05:40:30.540Z,10.67
2016-11-23T05:41:31.310Z,10.71
2016-11-23T05:42:31.932Z,10.67
2016-11-23T05:43:32.546Z,10.68
2016-11-23T05:44:33.156Z,10.69
2016-11-23T05:45:33.797Z,10.61
2016-11-23T05:46:34.402Z,10.67
2016-11-23T05:47:35.021Z,10.64
2016-11-23T05:48:35.653Z,10.63
2016-11-23T05:49:36.278Z,10.71
2016-11-23T05:50:36.889Z,10.71
2016-11-23T05:51:37.528Z,10.68
2016-11-23T05:52:38.147Z,10.68
2016-11-23T05:53:38.772Z,10.63
2016-11-23T05:54:39.385Z,10.68
2016-11-23T05:55:40.010Z,10.6
2016-11-23T05:56:40.623Z,10.69
2016-11-23T05:57:41.236Z,10.74
2016-11-23T05:58:41.858Z,10.64
2016-11-23T05:59:42.492Z,10.75
2016-11-23T06:00:43.113Z,10.76
2016-11-23T06:01:43.724Z,10.68
2016-11-23T06:02:44.366Z,10.67
2016-11-23T06:03:44.980Z,10.69
2016-11-23T06:04:45.591Z,10.68
2016-11-23T06:05:46.250Z,10.63
2016-11-23T06:06:46.862Z,10.71
2016-11-23T06:07:47.493Z,10.68
2016-11-23T06:08:48.108Z,10.71
2016-11-23T06:09:48.749Z,10.75
2016-11-23T06:10:49.386Z,10.68
2016-11-23T06:11:50.155Z,10.78
2016-11-23T06:12:50.859Z,10.64
2016-11-23T06:13:51.500Z,10.75
2016-11-23T06:14:52.119Z,10.67
2016-11-23T06:15:52.753Z,10.71
2016-11-23T06:16:53.393Z,10.63
2016-11-23T06:17:54.024Z,10.72
2016-11-23T06:18:54.744Z,10.67
2016-11-23T06:19:55.382Z,10.61
2016-11-23T06:20:56.066Z,10.63
2016-11-23T06:21:56.690Z,10.63
2016-11-23T06:22:57.341Z,10.67
2016-11-23T06:23:57.954Z,10.61
2016-11-23T06:24:58.583Z,10.61
2016-11-23T06:25:59.228Z,10.68
2016-11-23T06:26:59.846Z,10.61
2016-11-23T06:28:00.467Z,10.63
2016-11-23T06:29:01.103Z,10.67
2016-11-23T06:30:01.725Z,10.79
2016-11-23T06:31:02.707Z,10.72
2016-11-23T06:32:03.323Z,10.78
2016-11-23T06:33:04.001Z,10.64
2016-11-23T06:34:04.719Z,10.64
2016-11-23T06:35:05.389Z,10.72
2016-11-23T06:36:06.006Z,10.71
2016-11-23T06:37:06.632Z,10.74
2016-11-23T06:38:07.314Z,10.68
2016-11-23T06:39:07.931Z,10.69
2016-11-23T06:40:08.549Z,10.68
2016-11-23T06:41:09.190Z,10.71
2016-11-23T06:42:09.801Z,10.69
2016-11-23T06:43:10.414Z,10.67
2016-11-23T06:44:11.055Z,10.75
2016-11-23T06:45:11.641Z,10.67
2016-11-23T06:46:12.291Z,10.68
2016-11-23T06:47:12.950Z,10.68
2016-11-23T06:48:13.797Z,10.61
2016-11-23T06:49:14.455Z,10.67
2016-11-23T06:50:15.118Z,10.68
2016-11-23T06:51:15.738Z,10.71
2016-11-23T06:52:16.375Z,10.69
2016-11-23T06:53:17.086Z,10.69
2016-11-23T06:54:17.707Z,10.68
2016-11-23T06:55:18.349Z,10.64
2016-11-23T06:56:18.995Z,10.72
2016-11-23T06:57:19.666Z,10.69
2016-11-23T06:58:20.323Z,10.63
2016-11-23T06:59:20.979Z,10.61
2016-11-23T07:00:21.627Z,10.6
2016-11-23T07:01:22.259Z,10.61
2016-11-23T07:02:22.934Z,10.63
2016-11-23T07:03:23.604Z,10.64
2016-11-23T07:04:24.238Z,10.68
2016-11-23T07:05:24.913Z,10.64
2016-11-23T07:06:25.525Z,10.69
2016-11-23T07:07:26.160Z,10.67
2016-11-23T07:08:26.865Z,10.67
2016-11-23T07:09:27.508Z,10.67
2016-11-23T07:10:28.148Z,10.72
2016-11-23T07:11:28.792Z,10.69
2016-11-23T07:12:29.430Z,10.63
2016-11-23T07:13:30.094Z,10.71
2016-11-23T07:14:30.740Z,10.75
2016-11-23T07:15:31.368Z,10.67
2016-11-23T07:16:32.016Z,10.63
2016-11-23T07:17:32.660Z,10.64
2016-11-23T07:18:33.403Z,10.72
2016-11-23T07:19:34.096Z,10.67
2016-11-23T07:20:34.705Z,10.72
2016-11-23T07:21:35.329Z,10.64
2016-11-23T07:22:35.968Z,10.69
2016-11-23T07:23:36.616Z,10.64
2016-11-23T07:24:37.255Z,10.64
2016-11-23T07:25:37.882Z,10.63
2016-11-23T07:26:38.509Z,10.68
2016-11-23T07:27:39.121Z,10.69
2016-11-23T07:28:39.740Z,10.67
2016-11-23T07:29:40.360Z,10.68
2016-11-23T07:30:40.986Z,10.6
2016-11-23T07:31:41.607Z,10.67
2016-11-23T07:32:42.225Z,10.71
2016-11-23T07:33:42.906Z,10.72
2016-11-23T07:34:43.515Z,10.69
2016-11-23T07:35:44.154Z,10.75
2016-11-23T07:36:44.762Z,10.72
2016-11-23T07:37:45.399Z,10.64
2016-11-23T07:38:46.088Z,10.61
2016-11-23T07:39:46.651Z,10.72
2016-11-23T07:40:47.308Z,10.74
2016-11-23T07:41:47.933Z,10.67
2016-11-23T07:42:48.561Z,10.75
2016-11-23T07:43:49.203Z,10.76
2016-11-23T07:44:49.840Z,10.74
2016-11-23T07:45:50.467Z,10.79
2016-11-23T07:46:51.110Z,10.74
2016-11-23T07:47:51.748Z,10.78
2016-11-23T07:48:52.387Z,10.86
2016-11-23T07:49:53.029Z,10.75
2016-11-23T07:50:53.678Z,10.78
2016-11-23T07:51:54.335Z,10.82
2016-11-23T07:52:54.960Z,10.78
2016-11-23T07:53:55.580Z,10.82
2016-11-23T07:54:56.241Z,10.87
2016-11-23T07:55:56.861Z,10.9
2016-11-23T07:56:57.484Z,10.89
2016-11-23T07:57:58.197Z,10.87
2016-11-23T07:58:58.859Z,10.93
2016-11-23T07:59:59.518Z,10.84
2016-11-23T08:01:00.147Z,11.11
2016-11-23T08:02:00.798Z,11.17
2016-11-23T08:03:01.433Z,11.1
2016-11-23T08:04:02.151Z,11.04
2016-11-23T08:05:02.779Z,11
2016-11-23T08:06:03.399Z,11.05
2016-11-23T08:07:04.029Z,10.99
2016-11-23T08:08:04.686Z,10.94
2016-11-23T08:09:05.317Z,10.96
2016-11-23T08:10:05.989Z,11.11
2016-11-23T08:11:06.613Z,11.05
2016-11-23T08:12:07.230Z,10.97
2016-11-23T08:13:07.849Z,10.92
2016-11-23T08:14:08.489Z,11.04
2016-11-23T08:15:09.128Z,10.99
2016-11-23T08:16:09.756Z,10.94
2016-11-23T08:17:10.396Z,10.99
2016-11-23T08:18:11.039Z,10.97
2016-11-23T08:19:11.672Z,10.94
2016-11-23T08:20:12.293Z,10.97
2016-11-23T08:21:12.953Z,10.94
2016-11-23T08:22:13.588Z,10.93
2016-11-23T08:23:14.209Z,10.92
2016-11-23T08:24:14.833Z,10.75
2016-11-23T08:25:15.460Z,10.82
2016-11-23T08:26:16.138Z,10.89
2016-11-23T08:27:16.811Z,10.86
2016-11-23T08:28:17.477Z,10.93
2016-11-23T08:29:18.104Z,10.79
2016-11-23T08:30:18.720Z,10.92
2016-11-23T08:31:19.383Z,10.94
2016-11-23T08:32:20.025Z,10.89
2016-11-23T08:33:20.632Z,10.89
2016-11-23T08:34:21.264Z,10.96
2016-11-23T08:35:21.916Z,10.9
2016-11-23T08:36:22.536Z,10.93
2016-11-23T08:37:23.226Z,11.02
2016-11-23T08:38:23.885Z,11.02
2016-11-23T08:39:24.513Z,11.05
2016-11-23T08:40:25.134Z,11
2016-11-23T08:41:25.810Z,11.08
2016-11-23T08:42:26.434Z,11.1
2016-11-23T08:43:27.079Z,11.1
2016-11-23T08:44:27.720Z,11.14
2016-11-23T08:45:28.349Z,11.08
2016-11-23T08:46:28.968Z,11.1
2016-11-23T08:47:29.607Z,11.17
2016-11-23T08:48:30.315Z,11.07
2016-11-23T08:49:30.936Z,11.15
2016-11-23T08:50:31.588Z,11.15
2016-11-23T08:51:32.216Z,11.14
2016-11-23T08:52:32.851Z,11.18
2016-11-23T08:53:33.503Z,11.1
2016-11-23T08:54:34.155Z,11.17
2016-11-23T08:55:34.780Z,11.1
2016-11-23T08:56:35.394Z,11.27
2016-11-23T08:57:36.043Z,11.23
2016-11-23T08:58:36.669Z,11.23
2016-11-23T08:59:37.353Z,11.26
2016-11-23T09:00:37.981Z,11.3
2016-11-23T09:01:38.652Z,11.3
2016-11-23T09:02:39.379Z,11.29
2016-11-23T09:03:40.033Z,11.26
2016-11-23T09:04:40.750Z,11.29
2016-11-23T09:05:41.396Z,11.33
2016-11-23T09:06:42.087Z,11.33
2016-11-23T09:07:42.792Z,11.32
2016-11-23T09:08:43.455Z,11.37
2016-11-23T09:09:44.402Z,11.35
2016-11-23T09:10:45.040Z,11.32
2016-11-23T09:11:45.926Z,11.45
2016-11-23T09:12:46.556Z,11.44
2016-11-23T09:13:47.235Z,11.43
2016-11-23T09:14:48.056Z,11.45
2016-11-23T09:15:48.714Z,11.45
2016-11-23T09:16:49.586Z,11.5
2016-11-23T09:17:50.267Z,11.52
2016-11-23T09:18:50.975Z,11.48
2016-11-23T09:19:51.683Z,11.47
2016-11-23T09:20:52.344Z,11.5
2016-11-23T09:21:53.100Z,11.45
2016-11-23T09:22:53.863Z,11.5
2016-11-23T09:23:54.599Z,11.5
2016-11-23T09:24:55.229Z,11.5
2016-11-23T09:25:55.891Z,11.5
2016-11-23T09:26:56.694Z,11.55
2016-11-23T09:27:57.344Z,11.55
2016-11-23T09:28:57.997Z,11.63
2016-11-23T09:29:58.626Z,11.55
2016-11-23T09:30:59.267Z,11.55
2016-11-23T09:31:59.915Z,11.62
2016-11-23T09:33:00.552Z,11.68
2016-11-23T09:34:01.200Z,11.62
2016-11-23T09:35:01.860Z,11.62
2016-11-23T09:36:02.533Z,11.69
2016-11-23T09:37:03.197Z,11.69
2016-11-23T09:38:03.906Z,11.66
2016-11-23T09:39:04.566Z,11.62
2016-11-23T09:40:05.223Z,11.69
2016-11-23T09:41:05.909Z,11.66
2016-11-23T09:42:06.834Z,11.66
2016-11-23T09:43:07.397Z,11.66
2016-11-23T09:44:07.944Z,11.6
2016-11-23T09:45:08.576Z,11.59
2016-11-23T09:46:09.247Z,11.69
2016-11-23T09:47:09.897Z,11.69
2016-11-23T09:48:10.535Z,11.7
2016-11-23T09:49:11.207Z,11.8
2016-11-23T09:50:11.947Z,11.69
2016-11-23T09:51:12.584Z,11.73
2016-11-23T09:52:13.232Z,11.69
2016-11-23T09:53:13.989Z,11.73
2016-11-23T09:54:14.668Z,11.81
2016-11-23T09:55:15.320Z,11.87
2016-11-23T09:56:16.092Z,11.9
2016-11-23T09:57:16.753Z,11.94
2016-11-23T09:58:17.446Z,11.94
2016-11-23T09:59:18.152Z,12.03
2016-11-23T10:00:18.893Z,12.06
2016-11-23T10:01:19.600Z,11.97
2016-11-23T10:02:20.242Z,12.07
2016-11-23T10:03:20.906Z,12.07
2016-11-23T10:04:21.575Z,12.17
2016-11-23T10:05:22.244Z,12.15
2016-11-23T10:06:22.900Z,12.15
2016-11-23T10:07:23.538Z,12.17
2016-11-23T10:08:24.200Z,12.18
2016-11-23T10:09:24.822Z,12.24
2016-11-23T10:10:25.452Z,12.22
2016-11-23T10:11:26.100Z,12.22
2016-11-23T10:12:26.742Z,12.32
2016-11-23T10:13:27.363Z,12.29
2016-11-23T10:14:28.058Z,12.27
2016-11-23T10:15:28.698Z,12.29
2016-11-23T10:16:29.329Z,12.4
2016-11-23T10:17:29.973Z,12.43
2016-11-23T10:18:30.610Z,12.45
2016-11-23T10:19:31.237Z,12.42
2016-11-23T10:20:31.859Z,12.4
2016-11-23T10:21:32.499Z,12.42
2016-11-23T10:22:33.125Z,12.4
2016-11-23T10:23:33.757Z,12.53
2016-11-23T10:24:34.389Z,12.43
2016-11-23T10:25:35.009Z,12.4
2016-11-23T10:26:35.651Z,12.36
2016-11-23T10:27:36.311Z,12.49
2016-11-23T10:28:36.966Z,12.49
2016-11-23T10:29:37.621Z,12.6
2016-11-23T10:30:38.249Z,12.65
2016-11-23T10:31:38.973Z,12.61
2016-11-23T10:32:39.549Z,12.65
2016-11-23T10:33:40.187Z,12.7
2016-11-23T10:34:40.851Z,12.7
2016-11-23T10:35:41.509Z,12.76
2016-11-23T10:36:42.258Z,12.73
2016-11-23T10:37:42.893Z,12.8
2016-11-23T10:38:43.535Z,12.78
2016-11-23T10:39:44.156Z,12.85
2016-11-23T10:40:44.774Z,12.79
2016-11-23T10:41:45.435Z,12.8
2016-11-23T10:42:46.065Z,12.7
2016-11-23T10:43:46.700Z,12.76
2016-11-23T10:44:47.323Z,12.8
2016-11-23T10:45:47.941Z,12.7
2016-11-23T10:46:48.565Z,12.61
2016-11-23T10:47:49.196Z,12.62
2016-11-23T10:48:49.832Z,12.6
2016-11-23T10:49:50.476Z,12.64
2016-11-23T10:50:51.090Z,12.62
2016-11-23T10:51:51.713Z,12.73
2016-11-23T10:52:52.334Z,12.7
2016-11-23T10:53:52.958Z,12.72
2016-11-23T10:54:53.582Z,12.79
2016-11-23T10:55:54.199Z,12.76
2016-11-23T10:56:54.810Z,12.68
2016-11-23T10:57:55.431Z,12.67
2016-11-23T10:58:56.066Z,12.64
2016-11-23T10:59:56.686Z,12.64
2016-11-23T11:00:57.316Z,12.67
2016-11-23T11:01:57.947Z,12.72
2016-11-23T11:02:58.570Z,12.76
2016-11-23T11:03:59.201Z,12.75
2016-11-23T11:04:59.834Z,12.75
2016-11-23T11:06:00.460Z,12.72
2016-11-23T11:07:01.063Z,12.73
2016-11-23T11:08:01.724Z,12.64
2016-11-23T11:09:02.359Z,12.7
2016-11-23T11:10:02.985Z,12.7
2016-11-23T11:11:03.606Z,12.65
2016-11-23T11:12:04.236Z,12.68
2016-11-23T11:13:04.892Z,12.73
2016-11-23T11:14:05.528Z,12.67
2016-11-23T11:15:06.147Z,12.67
2016-11-23T11:16:06.780Z,12.64
2016-11-23T11:17:07.409Z,12.64
2016-11-23T11:18:08.059Z,12.67
2016-11-23T11:19:08.715Z,12.58
2016-11-23T11:20:09.339Z,12.68
2016-11-23T11:21:09.963Z,12.64
2016-11-23T11:22:10.584Z,12.64
2016-11-23T11:23:11.207Z,12.64
2016-11-23T11:24:11.824Z,12.64
2016-11-23T11:25:12.466Z,12.6
2016-11-23T11:26:13.088Z,12.65
2016-11-23T11:27:13.717Z,12.64
2016-11-23T11:28:14.338Z,12.64
2016-11-23T11:29:14.967Z,12.64
2016-11-23T11:30:15.627Z,12.68
2016-11-23T11:31:16.246Z,12.75
2016-11-23T11:32:16.872Z,12.73
2016-11-23T11:33:17.508Z,12.78
2016-11-23T11:34:18.132Z,12.78
2016-11-23T11:35:18.762Z,12.75
2016-11-23T11:36:19.383Z,12.8
2016-11-23T11:37:20.001Z,12.72
2016-11-23T11:38:20.615Z,12.67
2016-11-23T11:39:21.232Z,12.75
2016-11-23T11:40:21.875Z,12.73
2016-11-23T11:41:22.501Z,12.75
2016-11-23T11:42:23.135Z,12.7
2016-11-23T11:43:23.785Z,12.76
2016-11-23T11:44:24.425Z,12.82
2016-11-23T11:45:25.051Z,12.79
2016-11-23T11:46:25.684Z,12.86
2016-11-23T11:47:26.314Z,12.8
2016-11-23T11:48:26.975Z,12.85
2016-11-23T11:49:27.598Z,12.86
2016-11-23T11:50:28.232Z,12.85
2016-11-23T11:51:28.865Z,12.86
2016-11-23T11:52:29.489Z,12.8
2016-11-23T11:53:30.110Z,12.82
2016-11-23T11:54:30.739Z,12.91
2016-11-23T11:55:31.360Z,12.91
2016-11-23T11:56:32.043Z,12.86
2016-11-23T11:57:32.665Z,12.95
2016-11-23T11:58:33.291Z,12.91
2016-11-23T11:59:33.916Z,12.83
2016-11-23T12:00:34.538Z,12.91
2016-11-23T12:01:35.193Z,12.86
2016-11-23T12:02:35.823Z,12.91
2016-11-23T12:03:36.460Z,12.87
2016-11-23T12:04:37.093Z,12.8
2016-11-23T12:05:37.742Z,12.86
2016-11-23T12:06:38.403Z,12.87
2016-11-23T12:07:39.019Z,12.82
2016-11-23T12:08:39.645Z,12.79
2016-11-23T12:09:40.275Z,12.78
2016-11-23T12:10:40.900Z,12.79
2016-11-23T12:11:41.519Z,12.72
2016-11-23T12:12:42.146Z,12.79
2016-11-23T12:13:42.771Z,12.75
2016-11-23T12:14:43.397Z,12.76
2016-11-23T12:15:44.052Z,12.76
2016-11-23T12:16:44.687Z,12.68
2016-11-23T12:17:45.386Z,12.76
2016-11-23T12:18:46.007Z,12.7
2016-11-23T12:19:46.629Z,12.62
2016-11-23T12:20:47.268Z,12.65
2016-11-23T12:21:47.907Z,12.73
2016-11-23T12:22:48.548Z,12.73
2016-11-23T12:23:49.191Z,12.73
2016-11-23T12:24:49.818Z,12.76
2016-11-23T12:25:50.454Z,12.76
2016-11-23T12:26:51.082Z,12.76
2016-11-23T12:27:51.719Z,12.65
2016-11-23T12:28:52.490Z,12.67
2016-11-23T12:29:53.111Z,12.62
2016-11-23T12:30:53.730Z,12.7
2016-11-23T12:31:54.360Z,12.67
2016-11-23T12:32:54.983Z,12.65
2016-11-23T12:33:55.610Z,12.7
2016-11-23T12:34:56.226Z,12.65
2016-11-23T12:35:56.847Z,12.64
2016-11-23T12:36:57.465Z,12.68
2016-11-23T12:37:58.082Z,12.67
2016-11-23T12:38:58.724Z,12.73
2016-11-23T12:39:59.349Z,12.64
2016-11-23T12:40:59.972Z,12.7
2016-11-23T12:42:00.612Z,12.72
2016-11-23T12:43:01.234Z,12.64
2016-11-23T12:44:01.866Z,12.67
2016-11-23T12:45:02.513Z,12.64
2016-11-23T12:46:03.134Z,12.64
2016-11-23T12:47:03.821Z,12.68
2016-11-23T12:48:04.440Z,12.73
2016-11-23T12:49:05.077Z,12.7
2016-11-23T12:50:05.704Z,12.68
2016-11-23T12:51:06.559Z,12.73
2016-11-23T12:52:07.168Z,12.65
2016-11-23T12:53:07.812Z,12.73
2016-11-23T12:54:08.437Z,12.65
2016-11-23T12:55:09.059Z,12.68
2016-11-23T12:56:09.682Z,12.64
2016-11-23T12:57:10.308Z,12.6
2016-11-23T12:58:10.935Z,12.64
2016-11-23T12:59:11.589Z,12.65
2016-11-23T13:00:12.246Z,12.65
2016-11-23T13:01:12.944Z,12.78
2016-11-23T13:02:13.566Z,12.68
2016-11-23T13:03:14.181Z,12.64
2016-11-23T13:04:14.805Z,12.65
2016-11-23T13:05:15.424Z,12.62